Accueil
METAR-TAF:

METAR-TAF

Aéroports :

Aéroport de Melilla

Melilla, Espagne

latitude: 35-17N, longitude: 002-57W, altitude: 47 m

Observation

Le bulletin a été fait il y a 39 minutes, à 23:00 UTC
Vent 5 kt de est/nord-est, variant entre nord/nord-est et est/sud-est
Température 21°C
Humidité 78%
Pression 1023 hPa
Visibilité 10 km ou plus
Ciel couvert à une hauteur de 1700 ft

METAR: GEML 252300Z AUTO 07005KT 030V110 9999 OVC017 21/17 Q1023

Heure: 01:39 (23:39 UTC)

Prévision

Le bulletin a été fait il y a 3 heures et 39 minutes, à 20:00 UTC
Prévision valable du 25 à 21 UTC au 26 à 21 UTC
Vent 9 kt de est/nord-est
Visibilité 10 km ou plus
Quelques nuages à une hauteur de 1200 ft

TAF: GEML 252000Z 2521/2621 07009KT 9999 FEW012 TX25/2613Z TN19/2604Z

Observations et prévisions météorologiques de plus de 4000 aéroports (messages METAR et TAF).

Les stations disponibles sont représentées par des disques jaunes et rouges sur la carte.

Passer la souris dessus pour voir le nom de la station.

Cliquer dessus pour voir les observations et prévisions météorologiques.

Pour changer de carte: cliquez sur les boutons verts avec une croix noire pour zoomer, sur le bouton vert avec un tiret pour effectuer un zoom arrière, ou sur les flèches vertes pour les cartes adjacentes.


METAR-TAF: